createdAt,value
2023-02-12T00:01:10.425Z,23.45
2023-02-12T00:03:59.058Z,25.08
2023-02-12T00:06:47.557Z,22.92
2023-02-12T00:09:35.961Z,19.92
2023-02-12T00:12:24.465Z,21.95
2023-02-12T00:15:14.279Z,21.38
2023-02-12T00:18:02.701Z,20.55
2023-02-12T00:20:51.135Z,17.95
2023-02-12T00:23:41.121Z,19.70
2023-02-12T00:26:29.992Z,19.42
2023-02-12T00:29:18.706Z,20.23
2023-02-12T00:32:08.770Z,19.48
2023-02-12T00:34:57.264Z,19.48
2023-02-12T00:37:45.769Z,15.93
2023-02-12T00:40:34.256Z,17.98
2023-02-12T00:43:22.768Z,17.75
2023-02-12T00:46:11.335Z,18.08
2023-02-12T00:49:01.209Z,17.42
2023-02-12T00:51:49.756Z,19.85
2023-02-12T00:54:38.403Z,15.50
2023-02-12T00:57:26.933Z,15.60
2023-02-12T01:00:16.552Z,15.82
2023-02-12T01:03:05.590Z,18.30
2023-02-12T01:05:55.748Z,17.15
2023-02-12T01:08:44.374Z,14.02
2023-02-12T01:11:32.809Z,17.13
2023-02-12T01:14:21.558Z,14.82
2023-02-12T01:17:10.691Z,16.05
2023-02-12T01:19:59.794Z,12.85
2023-02-12T01:22:49.923Z,14.05
2023-02-12T01:25:39.793Z,17.93
2023-02-12T01:28:28.371Z,14.65
2023-02-12T01:31:20.007Z,14.40
2023-02-12T01:34:09.310Z,13.65
2023-02-12T01:36:57.711Z,14.82
2023-02-12T01:39:47.553Z,13.25
2023-02-12T01:42:36.193Z,12.87
2023-02-12T01:45:46.117Z,11.25
2023-02-12T01:48:38.262Z,13.13
2023-02-12T01:51:28.708Z,13.43
2023-02-12T01:54:20.931Z,11.70
2023-02-12T01:57:13.164Z,13.70
2023-02-12T02:00:05.464Z,11.37
2023-02-12T02:02:59.425Z,13.48
2023-02-12T02:05:54.451Z,12.27
2023-02-12T02:08:43.865Z,12.02
2023-02-12T02:11:49.655Z,11.23
2023-02-12T02:14:40.660Z,14.82
2023-02-12T02:17:47.367Z,14.40
2023-02-12T02:21:03.940Z,14.05
2023-02-12T02:24:21.172Z,12.07
2023-02-12T02:27:25.376Z,12.20
2023-02-12T02:30:40.541Z,12.80
2023-02-12T02:33:38.536Z,11.67
2023-02-12T02:36:33.963Z,10.95
2023-02-12T02:39:29.054Z,12.20
2023-02-12T02:42:19.204Z,9.98
2023-02-12T02:45:12.799Z,9.93
2023-02-12T02:48:06.155Z,10.10
2023-02-12T02:51:00.027Z,11.27
2023-02-12T02:53:54.118Z,10.53
2023-02-12T02:56:45.513Z,11.25
2023-02-12T02:59:38.388Z,11.88
2023-02-12T03:02:29.402Z,10.93
2023-02-12T03:05:23.614Z,10.35
2023-02-12T03:08:16.465Z,11.83
2023-02-12T03:11:09.092Z,11.38
2023-02-12T03:14:01.961Z,12.05
2023-02-12T03:16:56.158Z,11.73
2023-02-12T03:19:48.759Z,11.15
2023-02-12T03:22:43.909Z,9.90
2023-02-12T03:28:49.124Z,10.67
2023-02-12T03:31:45.134Z,9.90
2023-02-12T03:34:44.465Z,11.50
2023-02-12T03:37:37.007Z,11.13
2023-02-12T03:40:30.941Z,11.98
2023-02-12T03:43:26.175Z,10.75
2023-02-12T03:46:21.860Z,11.48
2023-02-12T03:49:16.475Z,10.60
2023-02-12T03:52:05.708Z,11.45
2023-02-12T03:54:54.267Z,10.60
2023-02-12T03:58:17.652Z,9.88
2023-02-12T04:01:08.134Z,9.40
2023-02-12T05:44:00.628Z,8.23
2023-02-12T05:46:49.120Z,8.18
2023-02-12T05:49:37.543Z,7.65
2023-02-12T05:52:26.048Z,8.13
2023-02-12T05:55:14.603Z,6.72
2023-02-12T05:58:03.085Z,6.95
2023-02-12T06:00:52.866Z,7.43
2023-02-12T06:03:41.754Z,6.82
2023-02-12T06:06:31.444Z,7.00
2023-02-12T06:09:20.433Z,6.22
2023-02-12T06:12:08.976Z,6.53
2023-02-12T06:14:57.391Z,7.63
2023-02-12T06:17:47.156Z,6.00
2023-02-12T06:20:35.616Z,6.45
2023-02-12T06:23:24.500Z,9.02
2023-02-12T06:26:12.975Z,6.65
2023-02-12T06:29:02.611Z,6.28
2023-02-12T06:31:51.355Z,7.17
2023-02-12T06:34:41.614Z,6.25
2023-02-12T06:37:30.036Z,5.53
2023-02-12T06:40:19.095Z,8.57
2023-02-12T06:43:07.606Z,9.38
2023-02-12T06:45:56.423Z,8.57
2023-02-12T06:48:45.272Z,7.57
2023-02-12T06:51:36.379Z,9.33
2023-02-12T06:54:24.812Z,8.27
2023-02-12T06:57:13.235Z,7.68
2023-02-12T07:00:01.788Z,8.23
2023-02-12T07:02:54.560Z,7.82
2023-02-12T07:05:43.009Z,7.90
2023-02-12T07:08:32.860Z,7.93
2023-02-12T07:11:25.180Z,7.40
2023-02-12T07:14:15.996Z,5.93
2023-02-12T07:17:05.452Z,6.68
2023-02-12T07:19:53.886Z,5.55
2023-02-12T07:22:42.400Z,6.07
2023-02-12T07:25:32.213Z,7.15
2023-02-12T07:28:20.735Z,7.18
2023-02-12T07:31:10.664Z,8.07
2023-02-12T07:34:00.908Z,9.50
2023-02-12T07:36:49.310Z,6.60
2023-02-12T07:39:37.723Z,9.15
2023-02-12T07:42:27.500Z,10.67
2023-02-12T07:45:16.114Z,9.15
2023-02-12T07:48:04.728Z,7.20
2023-02-12T07:50:53.262Z,6.78
2023-02-12T07:53:42.687Z,7.00
2023-02-12T07:56:35.281Z,5.07
2023-02-12T07:59:25.155Z,7.82
2023-02-12T08:02:13.785Z,9.65
2023-02-12T08:05:02.281Z,9.35
2023-02-12T08:07:50.806Z,9.73
2023-02-12T08:10:39.356Z,11.07
2023-02-12T08:13:27.876Z,14.77
2023-02-12T08:16:19.473Z,10.82
2023-02-12T08:19:17.911Z,12.73
2023-02-12T08:22:08.395Z,12.40
2023-02-12T08:24:56.837Z,10.02
2023-02-12T08:27:45.332Z,8.50
2023-02-12T08:30:33.770Z,8.13
2023-02-12T08:33:23.861Z,6.57
2023-02-12T08:36:15.398Z,7.43
2023-02-12T08:39:03.884Z,6.70
2023-02-12T08:41:52.571Z,6.63
2023-02-12T08:44:41.001Z,7.43
2023-02-12T08:47:31.295Z,8.68
2023-02-12T08:50:21.365Z,8.10
2023-02-12T08:53:09.841Z,8.13
2023-02-12T08:55:58.287Z,11.00
2023-02-12T08:58:47.495Z,9.50
2023-02-12T09:01:39.033Z,13.23
2023-02-12T09:04:29.481Z,28.30
2023-02-12T09:07:19.355Z,19.92
2023-02-12T09:10:09.085Z,16.10
2023-02-12T09:12:57.564Z,28.50
2023-02-12T09:15:46.866Z,15.73
2023-02-12T09:18:36.625Z,12.55
2023-02-12T09:21:25.336Z,13.05
2023-02-12T09:24:15.175Z,10.65
2023-02-12T09:27:03.616Z,15.75
2023-02-12T09:29:52.049Z,12.40
2023-02-12T09:32:40.494Z,12.93
2023-02-12T09:35:28.939Z,14.60
2023-02-12T09:38:17.462Z,13.90
2023-02-12T09:41:43.759Z,14.07
2023-02-12T09:44:39.992Z,16.40
2023-02-12T09:47:34.698Z,12.60
2023-02-12T09:50:34.748Z,12.57
2023-02-12T09:53:25.988Z,12.80
2023-02-12T09:56:19.682Z,14.27
2023-02-12T10:35:15.769Z,11.83
2023-02-12T10:38:08.880Z,11.88
2023-02-12T10:41:01.762Z,12.43
2023-02-12T10:43:50.429Z,16.77
2023-02-12T10:46:39.548Z,12.23
2023-02-12T10:49:31.074Z,16.00
2023-02-12T10:52:34.897Z,12.70
2023-02-12T10:55:32.418Z,16.10
2023-02-12T10:58:24.258Z,16.77
2023-02-12T11:01:18.996Z,24.10
2023-02-12T11:04:22.788Z,30.98
2023-02-12T11:07:11.333Z,34.27
2023-02-12T11:10:01.172Z,41.65
2023-02-12T11:12:49.871Z,62.30
2023-02-12T11:15:47.282Z,72.95
2023-02-12T11:18:37.319Z,35.50
2023-02-12T11:21:25.844Z,16.13
2023-02-12T11:24:33.113Z,18.35
2023-02-12T11:27:25.875Z,14.77
2023-02-12T11:30:19.509Z,15.05
2023-02-12T11:33:28.194Z,14.52
2023-02-12T11:36:24.480Z,13.15
2023-02-12T11:39:22.204Z,15.90
2023-02-12T11:42:18.575Z,14.32
2023-02-12T11:45:17.681Z,16.38
2023-02-12T11:48:17.679Z,18.08
2023-02-12T11:51:09.361Z,15.25
2023-02-12T11:54:01.128Z,19.87
2023-02-12T11:56:49.985Z,17.23
2023-02-12T11:59:42.757Z,15.48
2023-02-12T12:02:39.238Z,18.92
2023-02-12T12:05:33.270Z,16.98
2023-02-12T12:08:27.019Z,16.60
2023-02-12T12:11:21.946Z,20.10
2023-02-12T12:14:18.807Z,17.85
2023-02-12T12:17:32.571Z,26.93
2023-02-12T12:20:26.386Z,30.85
2023-02-12T12:23:19.930Z,28.80
2023-02-12T12:26:14.180Z,22.17
2023-02-12T12:29:06.763Z,43.50
2023-02-12T12:32:00.732Z,34.85
2023-02-12T12:34:49.536Z,24.48
2023-02-12T12:37:45.304Z,20.48
2023-02-12T12:40:44.088Z,25.13
2023-02-12T12:43:40.780Z,23.13
2023-02-12T12:47:02.931Z,26.45
2023-02-12T12:50:09.210Z,25.15
2023-02-12T12:53:12.328Z,22.10
2023-02-12T12:56:34.552Z,23.48
2023-02-12T12:59:52.976Z,24.10
2023-02-12T13:03:24.416Z,21.25
2023-02-12T13:06:46.211Z,25.58
2023-02-12T13:09:49.446Z,30.23
2023-02-12T13:13:01.403Z,25.98
2023-02-12T13:15:57.331Z,22.27
2023-02-12T13:18:58.994Z,30.67
2023-02-12T13:21:54.230Z,26.67
2023-02-12T13:24:51.150Z,31.17
2023-02-12T13:27:42.316Z,27.00
2023-02-12T13:30:34.797Z,25.35
2023-02-12T13:33:26.636Z,28.42
2023-02-12T13:36:16.034Z,32.25
2023-02-12T13:39:11.856Z,28.10
2023-02-12T13:42:13.889Z,31.05
2023-02-12T13:45:16.481Z,32.53
2023-02-12T13:48:34.760Z,30.33
2023-02-12T13:51:33.118Z,31.00
2023-02-12T13:54:38.977Z,38.38
2023-02-12T13:57:28.853Z,29.17
2023-02-12T14:00:56.798Z,31.58
2023-02-12T14:03:45.258Z,30.55
2023-02-12T14:06:35.280Z,30.48
2023-02-12T14:09:32.288Z,32.08
2023-02-12T14:12:39.786Z,31.53
2023-02-12T14:15:35.867Z,30.70
2023-02-12T14:18:30.700Z,30.33
2023-02-12T14:21:45.812Z,31.23
2023-02-12T14:24:53.496Z,36.83
2023-02-12T14:27:46.840Z,29.30
2023-02-12T14:30:46.962Z,37.13
2023-02-12T14:33:35.540Z,33.10
2023-02-12T14:36:40.930Z,31.88
2023-02-12T14:39:30.853Z,33.85
2023-02-12T14:42:55.738Z,37.85
2023-02-12T14:45:44.351Z,35.53
2023-02-12T14:48:53.192Z,37.80
2023-02-12T14:51:46.168Z,38.20
2023-02-12T14:54:48.768Z,35.97
2023-02-12T14:57:42.293Z,33.50
2023-02-12T15:00:35.792Z,42.03
2023-02-12T15:03:30.196Z,35.00
2023-02-12T15:06:22.222Z,39.15
2023-02-12T15:09:13.381Z,43.17
2023-02-12T15:12:14.153Z,43.20
2023-02-12T15:15:21.807Z,33.85
2023-02-12T15:18:19.420Z,40.63
2023-02-12T15:21:16.512Z,43.40
2023-02-12T15:24:09.992Z,31.42
2023-02-12T15:27:01.151Z,39.55
2023-02-12T15:29:55.013Z,34.00
2023-02-12T15:32:47.472Z,38.40
2023-02-12T15:35:45.368Z,37.45
2023-02-12T15:38:37.380Z,45.80
2023-02-12T15:41:29.496Z,42.13
2023-02-12T15:44:25.768Z,47.55
2023-02-12T15:47:16.372Z,39.63
2023-02-12T15:50:05.318Z,46.53
2023-02-12T15:52:56.692Z,34.92
2023-02-12T15:55:47.792Z,38.33
2023-02-12T15:58:42.692Z,46.80
2023-02-12T16:01:33.488Z,56.40
2023-02-12T16:04:22.388Z,44.92
2023-02-12T16:07:13.481Z,51.35
2023-02-12T16:10:04.679Z,51.25
2023-02-12T16:12:54.231Z,47.75
2023-02-12T16:15:43.525Z,45.63
2023-02-12T16:18:32.356Z,49.03
2023-02-12T16:21:23.766Z,47.50
2023-02-12T16:24:27.154Z,43.63
2023-02-12T16:27:22.147Z,44.95
2023-02-12T16:30:27.816Z,40.95
2023-02-12T16:33:35.938Z,50.30
2023-02-12T16:36:33.021Z,50.05
2023-02-12T16:39:47.828Z,52.75
2023-02-12T16:42:37.890Z,49.58
2023-02-12T16:45:38.388Z,51.22
2023-02-12T16:48:27.106Z,44.20
2023-02-12T16:51:24.715Z,55.25
2023-02-12T16:54:28.893Z,47.00
2023-02-12T16:57:17.437Z,48.78
2023-02-12T17:00:09.712Z,52.00
2023-02-12T17:02:58.785Z,53.40
2023-02-12T17:05:49.369Z,50.28
2023-02-12T17:08:37.983Z,45.17
2023-02-12T17:11:29.050Z,45.30
2023-02-12T17:14:20.142Z,47.30
2023-02-12T17:17:10.209Z,59.28
2023-02-12T17:19:58.849Z,50.33
2023-02-12T17:22:51.556Z,47.60
2023-02-12T17:25:40.056Z,45.53
2023-02-12T17:28:28.687Z,46.70
2023-02-12T17:31:17.694Z,50.95
2023-02-12T17:34:07.684Z,54.92
2023-02-12T17:36:56.277Z,61.33
2023-02-12T17:39:45.018Z,54.03
2023-02-12T17:42:34.022Z,48.65
2023-02-12T17:45:22.621Z,48.90
2023-02-12T17:48:11.560Z,52.95
2023-02-12T17:51:01.444Z,48.17
2023-02-12T17:53:50.291Z,48.00
2023-02-12T17:56:38.744Z,48.87
2023-02-12T17:59:27.260Z,55.50
2023-02-12T18:02:15.754Z,52.78
2023-02-12T18:05:04.326Z,54.63
2023-02-12T18:07:54.454Z,55.72
2023-02-12T18:10:43.632Z,57.08
2023-02-12T18:13:32.214Z,52.25
2023-02-12T18:16:21.410Z,57.40
2023-02-12T18:19:09.965Z,54.17
2023-02-12T18:21:58.677Z,55.08
2023-02-12T18:24:48.742Z,52.92
2023-02-12T18:27:39.555Z,55.47
2023-02-12T18:30:28.409Z,60.50
2023-02-12T18:33:17.076Z,59.50
2023-02-12T18:36:07.647Z,61.00
2023-02-12T18:38:56.242Z,57.83
2023-02-12T18:41:47.612Z,65.50
2023-02-12T18:44:36.972Z,65.53
2023-02-12T18:47:25.516Z,63.00
2023-02-12T18:50:14.046Z,61.03
2023-02-12T18:53:02.810Z,63.00
2023-02-12T18:55:52.413Z,60.50
2023-02-12T18:58:42.368Z,61.92
2023-02-12T19:01:30.936Z,58.97
2023-02-12T19:04:21.755Z,59.92
2023-02-12T19:07:10.401Z,53.23
2023-02-12T19:09:58.934Z,54.38
2023-02-12T19:12:47.503Z,49.00
2023-02-12T19:15:40.112Z,50.70
2023-02-12T19:18:28.678Z,49.57
2023-02-12T19:21:17.629Z,50.92
2023-02-12T19:24:06.786Z,51.53
2023-02-12T19:26:55.760Z,51.00
2023-02-12T19:29:44.655Z,47.10
2023-02-12T19:32:34.452Z,48.93
2023-02-12T19:35:23.038Z,54.58
2023-02-12T19:38:11.523Z,56.10
2023-02-12T19:41:04.487Z,63.08
2023-02-12T19:43:55.911Z,60.15
2023-02-12T19:46:45.516Z,63.30
2023-02-12T19:49:35.410Z,63.78
2023-02-12T19:52:23.870Z,62.10
2023-02-12T19:55:12.388Z,61.97
2023-02-12T19:58:00.983Z,65.72
2023-02-12T20:00:50.055Z,72.07
2023-02-12T20:03:39.023Z,60.72
2023-02-12T20:06:31.520Z,60.75
2023-02-12T20:09:20.974Z,57.80
2023-02-12T20:12:09.504Z,56.47
2023-02-12T20:15:00.933Z,61.40
2023-02-12T20:17:49.505Z,59.60
2023-02-12T20:20:37.951Z,67.30
2023-02-12T20:23:28.003Z,68.38
2023-02-12T20:26:17.485Z,63.38
2023-02-12T20:29:06.458Z,58.13
2023-02-12T20:31:55.223Z,59.90
2023-02-12T20:34:50.930Z,57.53
2023-02-12T20:37:39.890Z,62.85
2023-02-12T20:40:29.818Z,57.58
2023-02-12T20:43:18.385Z,60.10
2023-02-12T20:46:07.923Z,60.28
2023-02-12T20:48:57.697Z,69.53
2023-02-12T20:51:47.427Z,65.97
2023-02-12T20:54:38.057Z,62.97
2023-02-12T20:57:27.951Z,64.25
2023-02-12T21:00:17.606Z,73.20
2023-02-12T21:03:06.372Z,76.03
2023-02-12T21:05:55.340Z,76.70
2023-02-12T21:08:44.349Z,89.38
2023-02-12T21:11:33.348Z,79.93
2023-02-12T21:14:24.499Z,67.97
2023-02-12T21:17:13.230Z,65.47
2023-02-12T21:20:02.074Z,64.93
2023-02-12T21:22:50.672Z,70.10
2023-02-12T21:25:39.193Z,64.70
2023-02-12T21:28:27.887Z,69.05
2023-02-12T21:31:20.993Z,67.50
2023-02-12T21:34:12.354Z,68.00
2023-02-12T21:37:00.912Z,67.18
2023-02-12T21:39:49.471Z,66.32
2023-02-12T21:42:37.916Z,66.53
2023-02-12T21:45:26.432Z,67.25
2023-02-12T21:48:16.294Z,67.85
2023-02-12T21:51:04.982Z,68.13
2023-02-12T21:53:55.116Z,64.05
2023-02-12T21:56:45.367Z,61.38
2023-02-12T21:59:34.088Z,63.22
2023-02-12T22:02:22.723Z,62.17
2023-02-12T22:05:12.737Z,67.97
2023-02-12T22:08:01.571Z,66.35
2023-02-12T22:10:50.074Z,73.03
2023-02-12T22:13:39.872Z,67.07
2023-02-12T22:16:30.103Z,69.38
2023-02-12T22:19:18.817Z,70.43
2023-02-12T22:22:08.636Z,68.30
2023-02-12T22:24:57.152Z,62.80
2023-02-12T22:27:45.617Z,65.22
2023-02-12T22:30:34.167Z,60.28
2023-02-12T22:33:22.639Z,64.50
2023-02-12T22:36:11.448Z,68.18
2023-02-12T22:39:01.861Z,67.60
2023-02-12T22:41:50.545Z,70.03
2023-02-12T22:44:39.181Z,69.43
2023-02-12T22:47:31.902Z,69.18
2023-02-12T22:50:20.652Z,68.13
2023-02-12T22:53:09.300Z,73.75
2023-02-12T22:56:03.049Z,69.82
2023-02-12T22:58:55.894Z,71.30
2023-02-12T23:01:44.803Z,76.97
2023-02-12T23:04:33.688Z,70.55
2023-02-12T23:07:22.277Z,76.80
2023-02-12T23:10:11.222Z,82.65
2023-02-12T23:13:02.674Z,93.50
2023-02-12T23:15:51.241Z,73.63
2023-02-12T23:18:39.868Z,74.40
2023-02-12T23:21:29.886Z,73.28
2023-02-12T23:24:18.478Z,67.30
2023-02-12T23:27:06.993Z,65.38
2023-02-12T23:29:56.902Z,68.22
2023-02-12T23:32:45.356Z,65.77
2023-02-12T23:35:34.036Z,64.30
2023-02-12T23:38:22.633Z,59.42
2023-02-12T23:41:11.540Z,60.47
2023-02-12T23:44:00.122Z,74.43
2023-02-12T23:46:52.046Z,75.47
2023-02-12T23:49:40.651Z,59.90
2023-02-12T23:52:29.362Z,55.92
2023-02-12T23:55:20.304Z,56.63
2023-02-12T23:58:09.477Z,64.15
